Terminal Aerodrome Forecast
Issued by NWS

Home | Current Version | Previous Version | Graphics & Text | Print | Product List | Glossary On
Versions: 1 2 3 4 5 6 7 8 9 10 11 12 13 14 15 16 17 18 19 20 21 22 23 24 25 26
000
FTUS42 KMHX 010803 AAB
TAFPGV
TAF AMD
KPGV 010803Z 0108/0206 VRB04KT P6SM OVC007
     FM011300 16006KT P6SM BKN015
     FM011500 18010G15KT P6SM SCT040 BKN100
     FM011800 20011G18KT P6SM VCTS SCT040CB BKN100
     FM020000 20007KT P6SM BKN040
      AMD LTD TO CLD VIS AND WIND=

USA.gov is the U.S. government's official web portal to all federal, state and local government web resources and services.